sensor_id;sensor_type;location;lat;lon;timestamp;pressure;altitude;pressure_sealevel;temperature;humidity
48810;BME280;40070;47.322;18.784;2024-03-07T00:00:43;1002.73;;;9.99;70.23
48810;BME280;40070;47.322;18.784;2024-03-07T00:02:46;1002.72;;;9.86;70.96
48810;BME280;40070;47.322;18.784;2024-03-07T00:04:49;1002.69;;;9.96;70.47
48810;BME280;40070;47.322;18.784;2024-03-07T00:06:52;1002.70;;;10.04;70.34
48810;BME280;40070;47.322;18.784;2024-03-07T00:08:54;1002.68;;;10.14;70.06
48810;BME280;40070;47.322;18.784;2024-03-07T00:10:56;1002.69;;;9.99;69.93
48810;BME280;40070;47.322;18.784;2024-03-07T00:12:59;1002.70;;;10.12;69.85
48810;BME280;40070;47.322;18.784;2024-03-07T00:15:02;1002.70;;;10.22;69.64
48810;BME280;40070;47.322;18.784;2024-03-07T00:17:05;1002.67;;;10.06;69.84
48810;BME280;40070;47.322;18.784;2024-03-07T00:19:07;1002.65;;;9.82;70.71
48810;BME280;40070;47.322;18.784;2024-03-07T00:21:09;1002.65;;;9.79;71.21
48810;BME280;40070;47.322;18.784;2024-03-07T00:23:12;1002.66;;;9.68;71.67
48810;BME280;40070;47.322;18.784;2024-03-07T00:25:14;1002.63;;;9.88;70.92
48810;BME280;40070;47.322;18.784;2024-03-07T00:27:17;1002.70;;;9.91;70.99
48810;BME280;40070;47.322;18.784;2024-03-07T00:29:19;1002.71;;;9.68;71.52
48810;BME280;40070;47.322;18.784;2024-03-07T00:31:22;1002.75;;;9.59;71.71
48810;BME280;40070;47.322;18.784;2024-03-07T00:33:24;1002.73;;;9.69;70.98
48810;BME280;40070;47.322;18.784;2024-03-07T00:35:27;1002.69;;;9.42;69.21
48810;BME280;40070;47.322;18.784;2024-03-07T00:37:29;1002.73;;;9.59;68.63
48810;BME280;40070;47.322;18.784;2024-03-07T00:39:32;1002.70;;;9.76;67.88
48810;BME280;40070;47.322;18.784;2024-03-07T00:41:34;1002.71;;;9.75;67.16
48810;BME280;40070;47.322;18.784;2024-03-07T00:43:37;1002.69;;;9.89;65.56
48810;BME280;40070;47.322;18.784;2024-03-07T00:45:39;1002.71;;;9.69;64.80
48810;BME280;40070;47.322;18.784;2024-03-07T00:47:42;1002.72;;;9.61;64.60
48810;BME280;40070;47.322;18.784;2024-03-07T00:49:44;1002.72;;;9.43;64.54
48810;BME280;40070;47.322;18.784;2024-03-07T00:51:47;1002.72;;;9.51;64.55
48810;BME280;40070;47.322;18.784;2024-03-07T00:53:49;1002.70;;;9.59;64.43
48810;BME280;40070;47.322;18.784;2024-03-07T00:55:52;1002.68;;;9.75;63.78
48810;BME280;40070;47.322;18.784;2024-03-07T00:57:54;1002.72;;;9.62;63.80
48810;BME280;40070;47.322;18.784;2024-03-07T00:59:57;1002.72;;;9.37;64.01
48810;BME280;40070;47.322;18.784;2024-03-07T01:01:59;1002.74;;;9.22;64.55
48810;BME280;40070;47.322;18.784;2024-03-07T01:04:02;1002.72;;;9.55;63.88
48810;BME280;40070;47.322;18.784;2024-03-07T01:06:04;1002.73;;;9.26;63.64
48810;BME280;40070;47.322;18.784;2024-03-07T01:08:07;1002.71;;;9.04;63.36
48810;BME280;40070;47.322;18.784;2024-03-07T01:10:09;1002.70;;;8.89;64.19
48810;BME280;40070;47.322;18.784;2024-03-07T01:12:12;1002.70;;;9.03;63.40
48810;BME280;40070;47.322;18.784;2024-03-07T01:14:14;1002.71;;;9.14;62.77
48810;BME280;40070;47.322;18.784;2024-03-07T01:16:17;1002.71;;;8.97;62.63
48810;BME280;40070;47.322;18.784;2024-03-07T01:18:19;1002.78;;;8.39;63.82
48810;BME280;40070;47.322;18.784;2024-03-07T01:20:22;1002.71;;;8.57;63.70
48810;BME280;40070;47.322;18.784;2024-03-07T01:22:24;1002.73;;;8.74;63.18
48810;BME280;40070;47.322;18.784;2024-03-07T01:24:27;1002.67;;;8.71;62.96
48810;BME280;40070;47.322;18.784;2024-03-07T01:26:29;1002.63;;;8.82;62.91
48810;BME280;40070;47.322;18.784;2024-03-07T01:28:32;1002.64;;;8.87;63.13
48810;BME280;40070;47.322;18.784;2024-03-07T01:30:35;1002.62;;;8.83;62.94
48810;BME280;40070;47.322;18.784;2024-03-07T01:32:37;1002.60;;;8.87;62.86
48810;BME280;40070;47.322;18.784;2024-03-07T01:34:40;1002.59;;;8.89;62.81
48810;BME280;40070;47.322;18.784;2024-03-07T01:36:42;1002.57;;;8.96;62.54
48810;BME280;40070;47.322;18.784;2024-03-07T01:38:45;1002.58;;;8.75;63.02
48810;BME280;40070;47.322;18.784;2024-03-07T01:40:48;1002.59;;;8.71;62.93
48810;BME280;40070;47.322;18.784;2024-03-07T01:42:50;1002.66;;;8.36;63.92
48810;BME280;40070;47.322;18.784;2024-03-07T01:44:52;1002.62;;;8.28;64.35
48810;BME280;40070;47.322;18.784;2024-03-07T01:46:55;1002.64;;;8.28;63.96
48810;BME280;40070;47.322;18.784;2024-03-07T01:48:58;1002.61;;;8.08;64.18
48810;BME280;40070;47.322;18.784;2024-03-07T01:51:00;1002.63;;;8.10;64.64
48810;BME280;40070;47.322;18.784;2024-03-07T01:53:04;1002.66;;;8.13;64.13
48810;BME280;40070;47.322;18.784;2024-03-07T01:55:07;1002.62;;;7.94;64.48
48810;BME280;40070;47.322;18.784;2024-03-07T01:57:10;1002.64;;;8.04;64.51
48810;BME280;40070;47.322;18.784;2024-03-07T01:59:13;1002.63;;;8.04;64.31
48810;BME280;40070;47.322;18.784;2024-03-07T02:01:16;1002.64;;;7.95;64.55
48810;BME280;40070;47.322;18.784;2024-03-07T02:03:19;1002.60;;;7.90;64.53
48810;BME280;40070;47.322;18.784;2024-03-07T02:05:21;1002.63;;;7.69;65.09
48810;BME280;40070;47.322;18.784;2024-03-07T02:07:24;1002.58;;;7.70;65.18
48810;BME280;40070;47.322;18.784;2024-03-07T02:09:26;1002.58;;;7.75;64.97
48810;BME280;40070;47.322;18.784;2024-03-07T02:11:29;1002.52;;;7.86;64.43
48810;BME280;40070;47.322;18.784;2024-03-07T02:13:31;1002.57;;;7.82;64.66
48810;BME280;40070;47.322;18.784;2024-03-07T02:15:34;1002.50;;;7.89;64.58
48810;BME280;40070;47.322;18.784;2024-03-07T02:17:37;1002.51;;;7.96;64.78
48810;BME280;40070;47.322;18.784;2024-03-07T02:19:39;1002.52;;;7.78;64.80
48810;BME280;40070;47.322;18.784;2024-03-07T02:21:42;1002.55;;;7.70;65.15
48810;BME280;40070;47.322;18.784;2024-03-07T02:23:44;1002.51;;;7.93;64.55
48810;BME280;40070;47.322;18.784;2024-03-07T02:25:47;1002.52;;;7.93;64.81
48810;BME280;40070;47.322;18.784;2024-03-07T02:27:49;1002.51;;;8.00;64.48
48810;BME280;40070;47.322;18.784;2024-03-07T02:29:52;1002.51;;;7.81;65.29
48810;BME280;40070;47.322;18.784;2024-03-07T02:31:54;1002.52;;;7.73;64.95
48810;BME280;40070;47.322;18.784;2024-03-07T02:33:57;1002.46;;;7.93;64.40
48810;BME280;40070;47.322;18.784;2024-03-07T02:35:59;1002.49;;;8.16;63.78
48810;BME280;40070;47.322;18.784;2024-03-07T02:38:02;1002.50;;;8.08;63.88
48810;BME280;40070;47.322;18.784;2024-03-07T02:40:05;1002.54;;;7.87;64.39
48810;BME280;40070;47.322;18.784;2024-03-07T02:42:08;1002.48;;;7.80;64.67
48810;BME280;40070;47.322;18.784;2024-03-07T02:44:10;1002.51;;;7.56;65.31
48810;BME280;40070;47.322;18.784;2024-03-07T02:46:13;1002.47;;;7.50;65.83
48810;BME280;40070;47.322;18.784;2024-03-07T02:48:15;1002.47;;;7.61;65.26
48810;BME280;40070;47.322;18.784;2024-03-07T02:50:18;1002.49;;;7.52;65.42
48810;BME280;40070;47.322;18.784;2024-03-07T02:52:20;1002.43;;;7.40;66.19
48810;BME280;40070;47.322;18.784;2024-03-07T02:54:23;1002.48;;;7.46;65.92
48810;BME280;40070;47.322;18.784;2024-03-07T02:56:25;1002.51;;;7.56;65.82
48810;BME280;40070;47.322;18.784;2024-03-07T02:58:28;1002.46;;;7.54;65.51
48810;BME280;40070;47.322;18.784;2024-03-07T03:00:30;1002.46;;;7.55;65.79
48810;BME280;40070;47.322;18.784;2024-03-07T03:02:32;1002.45;;;7.39;66.36
48810;BME280;40070;47.322;18.784;2024-03-07T03:04:35;1002.45;;;7.19;67.25
48810;BME280;40070;47.322;18.784;2024-03-07T03:06:37;1002.46;;;7.25;67.36
48810;BME280;40070;47.322;18.784;2024-03-07T03:08:40;1002.45;;;7.29;67.55
48810;BME280;40070;47.322;18.784;2024-03-07T03:10:43;1002.48;;;7.22;67.96
48810;BME280;40070;47.322;18.784;2024-03-07T03:12:45;1002.47;;;7.17;68.39
48810;BME280;40070;47.322;18.784;2024-03-07T03:14:48;1002.47;;;7.12;68.78
48810;BME280;40070;47.322;18.784;2024-03-07T03:16:50;1002.50;;;7.28;68.38
48810;BME280;40070;47.322;18.784;2024-03-07T03:18:53;1002.45;;;7.26;68.71
48810;BME280;40070;47.322;18.784;2024-03-07T03:20:55;1002.42;;;7.29;68.79
48810;BME280;40070;47.322;18.784;2024-03-07T03:22:58;1002.47;;;7.32;68.73
48810;BME280;40070;47.322;18.784;2024-03-07T03:25:00;1002.46;;;7.39;68.79
48810;BME280;40070;47.322;18.784;2024-03-07T03:27:03;1002.47;;;7.39;69.02
48810;BME280;40070;47.322;18.784;2024-03-07T03:29:05;1002.49;;;7.32;69.43
48810;BME280;40070;47.322;18.784;2024-03-07T03:31:08;1002.47;;;7.41;69.21
48810;BME280;40070;47.322;18.784;2024-03-07T03:33:10;1002.52;;;7.47;69.33
48810;BME280;40070;47.322;18.784;2024-03-07T03:35:13;1002.54;;;7.48;69.19
48810;BME280;40070;47.322;18.784;2024-03-07T03:37:16;1002.60;;;7.49;69.48
48810;BME280;40070;47.322;18.784;2024-03-07T03:39:18;1002.59;;;7.56;69.28
48810;BME280;40070;47.322;18.784;2024-03-07T03:41:21;1002.59;;;7.70;68.99
48810;BME280;40070;47.322;18.784;2024-03-07T03:43:23;1002.59;;;7.89;68.86
48810;BME280;40070;47.322;18.784;2024-03-07T03:45:26;1002.56;;;8.01;68.31
48810;BME280;40070;47.322;18.784;2024-03-07T03:47:28;1002.58;;;7.94;68.88
48810;BME280;40070;47.322;18.784;2024-03-07T03:49:31;1002.56;;;7.96;68.72
48810;BME280;40070;47.322;18.784;2024-03-07T03:51:33;1002.59;;;7.94;68.82
48810;BME280;40070;47.322;18.784;2024-03-07T03:53:36;1002.59;;;7.91;68.86
48810;BME280;40070;47.322;18.784;2024-03-07T03:55:38;1002.57;;;7.74;69.40
48810;BME280;40070;47.322;18.784;2024-03-07T03:57:42;1002.58;;;7.66;69.27
48810;BME280;40070;47.322;18.784;2024-03-07T03:59:45;1002.59;;;7.78;68.87
48810;BME280;40070;47.322;18.784;2024-03-07T04:01:47;1002.61;;;7.68;68.99
48810;BME280;40070;47.322;18.784;2024-03-07T04:03:50;1002.63;;;7.71;68.96
48810;BME280;40070;47.322;18.784;2024-03-07T04:05:52;1002.64;;;7.63;68.93
48810;BME280;40070;47.322;18.784;2024-03-07T04:07:55;1002.65;;;7.66;68.81
48810;BME280;40070;47.322;18.784;2024-03-07T04:09:58;1002.63;;;7.71;68.34
48810;BME280;40070;47.322;18.784;2024-03-07T04:12:00;1002.64;;;7.67;68.45
48810;BME280;40070;47.322;18.784;2024-03-07T04:14:03;1002.62;;;7.68;68.28
48810;BME280;40070;47.322;18.784;2024-03-07T04:16:05;1002.66;;;7.68;68.44
48810;BME280;40070;47.322;18.784;2024-03-07T04:18:08;1002.68;;;7.67;68.31
48810;BME280;40070;47.322;18.784;2024-03-07T04:20:10;1002.69;;;7.84;67.63
48810;BME280;40070;47.322;18.784;2024-03-07T04:22:13;1002.68;;;8.03;66.94
48810;BME280;40070;47.322;18.784;2024-03-07T04:24:15;1002.75;;;7.68;67.76
48810;BME280;40070;47.322;18.784;2024-03-07T04:26:18;1002.73;;;7.80;67.59
48810;BME280;40070;47.322;18.784;2024-03-07T04:28:20;1002.74;;;7.60;68.15
48810;BME280;40070;47.322;18.784;2024-03-07T04:30:23;1002.74;;;7.78;67.94
48810;BME280;40070;47.322;18.784;2024-03-07T04:32:25;1002.76;;;7.67;67.92
48810;BME280;40070;47.322;18.784;2024-03-07T04:34:28;1002.76;;;7.70;68.17
48810;BME280;40070;47.322;18.784;2024-03-07T04:36:30;1002.80;;;7.75;67.98
48810;BME280;40070;47.322;18.784;2024-03-07T04:38:33;1002.77;;;7.54;68.36
48810;BME280;40070;47.322;18.784;2024-03-07T04:40:35;1002.81;;;7.74;67.65
48810;BME280;40070;47.322;18.784;2024-03-07T04:42:38;1002.75;;;7.56;68.42
48810;BME280;40070;47.322;18.784;2024-03-07T04:44:40;1002.82;;;7.62;68.04
48810;BME280;40070;47.322;18.784;2024-03-07T04:46:43;1002.79;;;7.53;68.10
48810;BME280;40070;47.322;18.784;2024-03-07T04:48:45;1002.84;;;7.74;67.50
48810;BME280;40070;47.322;18.784;2024-03-07T04:50:48;1002.85;;;7.84;67.19
48810;BME280;40070;47.322;18.784;2024-03-07T04:52:50;1002.83;;;7.74;67.49
48810;BME280;40070;47.322;18.784;2024-03-07T04:54:53;1002.83;;;7.53;67.71
48810;BME280;40070;47.322;18.784;2024-03-07T04:56:55;1002.81;;;7.41;68.57
48810;BME280;40070;47.322;18.784;2024-03-07T04:58:58;1002.88;;;7.69;67.61
48810;BME280;40070;47.322;18.784;2024-03-07T05:01:00;1002.83;;;7.49;68.11
48810;BME280;40070;47.322;18.784;2024-03-07T05:03:03;1002.82;;;7.34;68.52
48810;BME280;40070;47.322;18.784;2024-03-07T05:05:05;1002.91;;;7.27;69.02
48810;BME280;40070;47.322;18.784;2024-03-07T05:07:08;1002.90;;;6.99;69.71
48810;BME280;40070;47.322;18.784;2024-03-07T05:09:10;1002.90;;;6.97;70.05
48810;BME280;40070;47.322;18.784;2024-03-07T05:11:13;1002.87;;;6.98;70.17
48810;BME280;40070;47.322;18.784;2024-03-07T05:13:15;1002.93;;;7.03;70.26
48810;BME280;40070;47.322;18.784;2024-03-07T05:15:18;1002.94;;;6.96;70.29
48810;BME280;40070;47.322;18.784;2024-03-07T05:17:20;1002.94;;;7.12;69.93
48810;BME280;40070;47.322;18.784;2024-03-07T05:19:23;1002.95;;;6.89;70.45
48810;BME280;40070;47.322;18.784;2024-03-07T05:21:25;1002.97;;;6.94;70.62
48810;BME280;40070;47.322;18.784;2024-03-07T05:23:28;1003.01;;;6.91;70.72
48810;BME280;40070;47.322;18.784;2024-03-07T05:25:31;1003.01;;;7.06;70.38
48810;BME280;40070;47.322;18.784;2024-03-07T05:27:33;1003.02;;;6.87;70.51
48810;BME280;40070;47.322;18.784;2024-03-07T05:29:35;1003.07;;;6.93;70.78
48810;BME280;40070;47.322;18.784;2024-03-07T05:31:38;1003.13;;;6.76;71.30
48810;BME280;40070;47.322;18.784;2024-03-07T05:33:41;1003.11;;;6.79;71.31
48810;BME280;40070;47.322;18.784;2024-03-07T05:35:44;1003.12;;;6.68;71.46
48810;BME280;40070;47.322;18.784;2024-03-07T05:37:46;1003.12;;;6.78;71.22
48810;BME280;40070;47.322;18.784;2024-03-07T05:39:49;1003.11;;;6.70;71.52
48810;BME280;40070;47.322;18.784;2024-03-07T05:41:51;1003.12;;;6.67;71.82
48810;BME280;40070;47.322;18.784;2024-03-07T05:43:54;1003.19;;;6.83;71.39
48810;BME280;40070;47.322;18.784;2024-03-07T05:45:56;1003.20;;;6.70;71.97
48810;BME280;40070;47.322;18.784;2024-03-07T05:48:12;1003.20;;;6.43;73.01
48810;BME280;40070;47.322;18.784;2024-03-07T05:50:13;1003.24;;;6.70;72.66
48810;BME280;40070;47.322;18.784;2024-03-07T05:52:16;1003.26;;;6.79;72.33
48810;BME280;40070;47.322;18.784;2024-03-07T05:54:18;1003.30;;;6.78;72.22
48810;BME280;40070;47.322;18.784;2024-03-07T05:56:21;1003.31;;;6.77;72.63
48810;BME280;40070;47.322;18.784;2024-03-07T05:58:23;1003.29;;;6.94;72.08
48810;BME280;40070;47.322;18.784;2024-03-07T06:00:26;1003.31;;;7.00;71.96
48810;BME280;40070;47.322;18.784;2024-03-07T06:02:28;1003.30;;;7.00;72.02
48810;BME280;40070;47.322;18.784;2024-03-07T06:04:31;1003.36;;;7.05;71.83
48810;BME280;40070;47.322;18.784;2024-03-07T06:06:33;1003.29;;;7.07;72.28
48810;BME280;40070;47.322;18.784;2024-03-07T06:08:36;1003.32;;;7.09;72.24
48810;BME280;40070;47.322;18.784;2024-03-07T06:10:39;1003.33;;;7.16;72.43
48810;BME280;40070;47.322;18.784;2024-03-07T06:12:42;1003.38;;;7.37;71.61
48810;BME280;40070;47.322;18.784;2024-03-07T06:14:44;1003.31;;;7.32;71.12
48810;BME280;40070;47.322;18.784;2024-03-07T06:16:46;1003.35;;;7.33;71.53
48810;BME280;40070;47.322;18.784;2024-03-07T06:18:49;1003.35;;;7.33;71.72
48810;BME280;40070;47.322;18.784;2024-03-07T06:20:51;1003.31;;;7.44;71.27
48810;BME280;40070;47.322;18.784;2024-03-07T06:22:54;1003.35;;;7.43;71.76
48810;BME280;40070;47.322;18.784;2024-03-07T06:24:56;1003.30;;;7.42;72.03
48810;BME280;40070;47.322;18.784;2024-03-07T06:26:59;1003.30;;;7.25;72.89
48810;BME280;40070;47.322;18.784;2024-03-07T06:29:01;1003.29;;;7.19;73.30
48810;BME280;40070;47.322;18.784;2024-03-07T06:31:04;1003.36;;;7.38;72.93
48810;BME280;40070;47.322;18.784;2024-03-07T06:33:06;1003.30;;;7.23;73.28
48810;BME280;40070;47.322;18.784;2024-03-07T06:35:09;1003.38;;;7.32;73.22
48810;BME280;40070;47.322;18.784;2024-03-07T06:37:12;1003.41;;;7.23;73.40
48810;BME280;40070;47.322;18.784;2024-03-07T06:39:14;1003.43;;;7.26;73.64
48810;BME280;40070;47.322;18.784;2024-03-07T06:41:17;1003.42;;;7.41;73.26
48810;BME280;40070;47.322;18.784;2024-03-07T06:43:19;1003.47;;;7.55;72.81
48810;BME280;40070;47.322;18.784;2024-03-07T06:45:22;1003.49;;;7.54;72.56
48810;BME280;40070;47.322;18.784;2024-03-07T06:47:24;1003.52;;;7.48;73.09
48810;BME280;40070;47.322;18.784;2024-03-07T06:49:27;1003.55;;;7.51;73.28
48810;BME280;40070;47.322;18.784;2024-03-07T06:51:29;1003.55;;;7.42;73.48
48810;BME280;40070;47.322;18.784;2024-03-07T06:53:32;1003.62;;;7.25;73.67
48810;BME280;40070;47.322;18.784;2024-03-07T06:55:34;1003.60;;;7.44;73.65
48810;BME280;40070;47.322;18.784;2024-03-07T06:57:37;1003.59;;;7.53;73.28
48810;BME280;40070;47.322;18.784;2024-03-07T06:59:39;1003.62;;;7.65;73.08
48810;BME280;40070;47.322;18.784;2024-03-07T07:01:42;1003.59;;;7.56;73.46
48810;BME280;40070;47.322;18.784;2024-03-07T07:03:44;1003.59;;;7.62;73.23
48810;BME280;40070;47.322;18.784;2024-03-07T07:05:47;1003.63;;;7.58;73.54
48810;BME280;40070;47.322;18.784;2024-03-07T07:07:50;1003.64;;;7.68;73.25
48810;BME280;40070;47.322;18.784;2024-03-07T07:09:52;1003.62;;;7.68;73.30
48810;BME280;40070;47.322;18.784;2024-03-07T07:11:55;1003.62;;;7.77;73.09
48810;BME280;40070;47.322;18.784;2024-03-07T07:13:57;1003.60;;;7.81;72.98
48810;BME280;40070;47.322;18.784;2024-03-07T07:16:00;1003.62;;;7.93;72.76
48810;BME280;40070;47.322;18.784;2024-03-07T07:18:02;1003.64;;;7.97;72.84
48810;BME280;40070;47.322;18.784;2024-03-07T07:20:05;1003.64;;;7.99;72.65
48810;BME280;40070;47.322;18.784;2024-03-07T07:22:08;1003.64;;;7.78;73.29
48810;BME280;40070;47.322;18.784;2024-03-07T07:24:10;1003.64;;;7.98;72.80
48810;BME280;40070;47.322;18.784;2024-03-07T07:26:13;1003.67;;;8.09;72.42
48810;BME280;40070;47.322;18.784;2024-03-07T07:28:16;1003.64;;;8.15;72.10
48810;BME280;40070;47.322;18.784;2024-03-07T07:30:19;1003.65;;;8.17;71.67
48810;BME280;40070;47.322;18.784;2024-03-07T07:32:22;1003.64;;;8.24;71.72
48810;BME280;40070;47.322;18.784;2024-03-07T07:34:24;1003.68;;;8.23;71.20
48810;BME280;40070;47.322;18.784;2024-03-07T07:36:26;1003.66;;;8.39;70.32
48810;BME280;40070;47.322;18.784;2024-03-07T07:38:29;1003.69;;;8.40;69.77
48810;BME280;40070;47.322;18.784;2024-03-07T07:40:31;1003.68;;;8.47;69.70
48810;BME280;40070;47.322;18.784;2024-03-07T07:42:37;1003.69;;;8.42;69.85
48810;BME280;40070;47.322;18.784;2024-03-07T07:44:40;1003.71;;;8.57;69.52
48810;BME280;40070;47.322;18.784;2024-03-07T07:46:42;1003.75;;;8.61;68.99
48810;BME280;40070;47.322;18.784;2024-03-07T07:48:44;1003.74;;;8.56;68.60
48810;BME280;40070;47.322;18.784;2024-03-07T07:50:48;1003.75;;;8.47;69.59
48810;BME280;40070;47.322;18.784;2024-03-07T07:52:52;1003.78;;;8.62;69.22
48810;BME280;40070;47.322;18.784;2024-03-07T07:54:54;1003.80;;;8.52;69.71
48810;BME280;40070;47.322;18.784;2024-03-07T07:56:57;1003.79;;;8.70;69.38
48810;BME280;40070;47.322;18.784;2024-03-07T07:58:59;1003.82;;;8.58;69.18
48810;BME280;40070;47.322;18.784;2024-03-07T08:01:02;1003.82;;;8.71;68.90
48810;BME280;40070;47.322;18.784;2024-03-07T08:03:05;1003.86;;;8.76;68.92
48810;BME280;40070;47.322;18.784;2024-03-07T08:05:08;1003.87;;;8.85;68.76
48810;BME280;40070;47.322;18.784;2024-03-07T08:07:10;1003.89;;;8.83;68.63
48810;BME280;40070;47.322;18.784;2024-03-07T08:09:13;1003.90;;;8.91;68.61
48810;BME280;40070;47.322;18.784;2024-03-07T08:11:15;1003.90;;;8.88;68.53
48810;BME280;40070;47.322;18.784;2024-03-07T08:13:18;1003.88;;;8.87;68.90
48810;BME280;40070;47.322;18.784;2024-03-07T08:15:20;1003.89;;;8.84;69.23
48810;BME280;40070;47.322;18.784;2024-03-07T08:17:23;1003.90;;;8.74;69.58
48810;BME280;40070;47.322;18.784;2024-03-07T08:19:25;1003.90;;;8.77;69.09
48810;BME280;40070;47.322;18.784;2024-03-07T08:21:28;1003.91;;;8.81;68.93
48810;BME280;40070;47.322;18.784;2024-03-07T08:23:30;1003.92;;;8.72;68.87
48810;BME280;40070;47.322;18.784;2024-03-07T08:25:33;1003.92;;;8.77;68.36
48810;BME280;40070;47.322;18.784;2024-03-07T08:27:42;1003.92;;;8.83;68.24
48810;BME280;40070;47.322;18.784;2024-03-07T08:29:45;1003.95;;;9.13;66.98
48810;BME280;40070;47.322;18.784;2024-03-07T08:31:47;1003.98;;;9.10;67.25
48810;BME280;40070;47.322;18.784;2024-03-07T08:33:50;1003.97;;;8.93;66.88
48810;BME280;40070;47.322;18.784;2024-03-07T08:35:52;1003.98;;;8.66;67.17
48810;BME280;40070;47.322;18.784;2024-03-07T08:37:55;1004.02;;;8.61;65.54
48810;BME280;40070;47.322;18.784;2024-03-07T08:39:57;1004.00;;;8.45;64.00
48810;BME280;40070;47.322;18.784;2024-03-07T08:42:00;1004.01;;;8.52;61.25
48810;BME280;40070;47.322;18.784;2024-03-07T08:44:02;1004.05;;;8.60;60.45
48810;BME280;40070;47.322;18.784;2024-03-07T08:46:05;1004.05;;;8.42;60.39
48810;BME280;40070;47.322;18.784;2024-03-07T08:48:07;1004.06;;;8.68;59.70
48810;BME280;40070;47.322;18.784;2024-03-07T08:50:10;1004.07;;;8.60;59.62
48810;BME280;40070;47.322;18.784;2024-03-07T08:52:12;1004.10;;;8.70;59.74
48810;BME280;40070;47.322;18.784;2024-03-07T08:54:15;1004.07;;;8.48;59.62
48810;BME280;40070;47.322;18.784;2024-03-07T08:56:17;1004.11;;;8.53;59.00
48810;BME280;40070;47.322;18.784;2024-03-07T08:58:20;1004.10;;;8.53;59.39
48810;BME280;40070;47.322;18.784;2024-03-07T09:00:22;1004.10;;;8.54;59.42
48810;BME280;40070;47.322;18.784;2024-03-07T09:02:25;1004.14;;;8.73;59.05
48810;BME280;40070;47.322;18.784;2024-03-07T09:04:27;1004.13;;;8.78;59.17
48810;BME280;40070;47.322;18.784;2024-03-07T09:06:30;1004.11;;;8.82;58.98
48810;BME280;40070;47.322;18.784;2024-03-07T09:08:32;1004.13;;;8.94;58.40
48810;BME280;40070;47.322;18.784;2024-03-07T09:10:35;1004.19;;;9.00;58.19
48810;BME280;40070;47.322;18.784;2024-03-07T09:12:37;1004.18;;;8.86;58.25
48810;BME280;40070;47.322;18.784;2024-03-07T09:14:40;1004.21;;;8.78;58.76
48810;BME280;40070;47.322;18.784;2024-03-07T09:16:42;1004.16;;;8.97;58.56
48810;BME280;40070;47.322;18.784;2024-03-07T09:18:45;1004.20;;;9.06;57.96
48810;BME280;40070;47.322;18.784;2024-03-07T09:20:47;1004.21;;;9.15;57.96
48810;BME280;40070;47.322;18.784;2024-03-07T09:22:50;1004.23;;;9.01;58.29
48810;BME280;40070;47.322;18.784;2024-03-07T09:24:52;1004.22;;;9.10;58.22
48810;BME280;40070;47.322;18.784;2024-03-07T09:26:55;1004.24;;;9.34;57.56
48810;BME280;40070;47.322;18.784;2024-03-07T09:28:57;1004.21;;;9.20;57.80
48810;BME280;40070;47.322;18.784;2024-03-07T09:31:00;1004.22;;;9.24;57.08
48810;BME280;40070;47.322;18.784;2024-03-07T09:33:02;1004.27;;;9.48;56.61
48810;BME280;40070;47.322;18.784;2024-03-07T09:35:05;1004.27;;;9.38;56.83
48810;BME280;40070;47.322;18.784;2024-03-07T09:37:08;1004.26;;;9.37;56.90
48810;BME280;40070;47.322;18.784;2024-03-07T09:39:10;1004.28;;;9.33;57.25
48810;BME280;40070;47.322;18.784;2024-03-07T09:41:14;1004.29;;;9.28;56.90
48810;BME280;40070;47.322;18.784;2024-03-07T09:43:17;1004.26;;;9.16;56.97
48810;BME280;40070;47.322;18.784;2024-03-07T09:45:20;1004.31;;;9.18;57.00
48810;BME280;40070;47.322;18.784;2024-03-07T09:47:22;1004.26;;;9.27;56.94
48810;BME280;40070;47.322;18.784;2024-03-07T09:49:25;1004.29;;;9.36;57.28
48810;BME280;40070;47.322;18.784;2024-03-07T09:51:30;1004.30;;;9.28;57.08
48810;BME280;40070;47.322;18.784;2024-03-07T09:53:33;1004.28;;;9.24;56.75
48810;BME280;40070;47.322;18.784;2024-03-07T09:55:36;1004.30;;;9.16;57.00
48810;BME280;40070;47.322;18.784;2024-03-07T09:57:39;1004.32;;;9.32;56.30
48810;BME280;40070;47.322;18.784;2024-03-07T09:59:42;1004.31;;;9.39;56.05
48810;BME280;40070;47.322;18.784;2024-03-07T10:01:45;1004.29;;;9.68;55.66
48810;BME280;40070;47.322;18.784;2024-03-07T10:03:48;1004.25;;;9.80;55.49
48810;BME280;40070;47.322;18.784;2024-03-07T10:05:52;1004.26;;;9.97;54.92
48810;BME280;40070;47.322;18.784;2024-03-07T10:07:55;1004.30;;;10.06;53.99
48810;BME280;40070;47.322;18.784;2024-03-07T10:09:58;1004.32;;;9.86;54.16
48810;BME280;40070;47.322;18.784;2024-03-07T10:12:00;1004.38;;;9.55;55.52
48810;BME280;40070;47.322;18.784;2024-03-07T10:14:03;1004.33;;;9.68;55.29
48810;BME280;40070;47.322;18.784;2024-03-07T10:16:05;1004.34;;;9.60;54.70
48810;BME280;40070;47.322;18.784;2024-03-07T10:18:08;1004.39;;;9.23;56.39
48810;BME280;40070;47.322;18.784;2024-03-07T10:20:14;1004.38;;;9.24;56.22
48810;BME280;40070;47.322;18.784;2024-03-07T10:22:20;1004.39;;;9.28;56.41
48810;BME280;40070;47.322;18.784;2024-03-07T10:24:24;1004.42;;;9.41;55.99
48810;BME280;40070;47.322;18.784;2024-03-07T10:26:26;1004.42;;;9.66;55.30
48810;BME280;40070;47.322;18.784;2024-03-07T10:28:29;1004.41;;;9.75;54.75
48810;BME280;40070;47.322;18.784;2024-03-07T10:30:39;1004.51;;;9.66;54.73
48810;BME280;40070;47.322;18.784;2024-03-07T10:32:41;1004.50;;;9.80;54.53
48810;BME280;40070;47.322;18.784;2024-03-07T10:34:44;1004.51;;;9.77;55.14
48810;BME280;40070;47.322;18.784;2024-03-07T10:36:46;1004.56;;;9.69;55.41
48810;BME280;40070;47.322;18.784;2024-03-07T10:38:49;1004.58;;;9.61;55.28
48810;BME280;40070;47.322;18.784;2024-03-07T10:40:52;1004.55;;;9.60;54.99
48810;BME280;40070;47.322;18.784;2024-03-07T10:42:56;1004.57;;;9.55;55.73
48810;BME280;40070;47.322;18.784;2024-03-07T10:45:01;1004.57;;;9.59;56.42
48810;BME280;40070;47.322;18.784;2024-03-07T10:47:06;1004.52;;;9.78;56.06
48810;BME280;40070;47.322;18.784;2024-03-07T10:49:08;1004.58;;;9.74;56.57
48810;BME280;40070;47.322;18.784;2024-03-07T10:51:38;1004.51;;;9.90;56.37
48810;BME280;40070;47.322;18.784;2024-03-07T10:53:52;1004.54;;;9.81;55.53
48810;BME280;40070;47.322;18.784;2024-03-07T10:56:14;1004.54;;;9.71;56.16
48810;BME280;40070;47.322;18.784;2024-03-07T11:00:46;1004.55;;;9.66;55.14